Time;durP1;ratioP1;P1;durP2;ratioP2;P2;SDS_P1;SDS_P2;PMS_P1;PMS_P2;Temp;Humidity;BMP_temperature;BMP_pressure;BME280_temperature;BME280_humidity;BME280_pressure;Samples;Min_cycle;Max_cycle;Signal;HPM_P1;HPM_P2
2021/10/20 00:01:34;;;;;;;1.55;0.65;;;;;;;16.99;100.00;98554.97;6337727;22;20343;-50
2021/10/20 00:04:37;;;;;;;0.47;0.45;;;;;;;16.91;100.00;98571.03;6337603;22;20028;-51
2021/10/20 00:07:40;;;;;;;0.40;0.40;;;;;;;16.81;100.00;98572.81;6337936;22;20453;-50
2021/10/20 00:10:43;;;;;;;0.63;0.22;;;;;;;16.69;100.00;98563.91;6338106;22;20102;-50
2021/10/20 00:13:46;;;;;;;1.27;0.40;;;;;;;16.70;100.00;98528.84;6338357;22;20068;-50
2021/10/20 00:16:49;;;;;;;9.80;0.32;;;;;;;16.66;100.00;98517.97;6338243;22;20505;-51
2021/10/20 00:19:58;;;;;;;0.25;0.20;;;;;;;16.62;100.00;98511.19;6338219;22;20351;-50
2021/10/20 00:23:00;;;;;;;0.90;0.10;;;;;;;16.65;100.00;98512.91;6337888;22;20026;-50
2021/10/20 00:26:03;;;;;;;2.40;0.98;;;;;;;16.65;100.00;98512.91;6338078;22;20025;-50
2021/10/20 00:29:06;;;;;;;3.40;0.35;;;;;;;16.62;100.00;98526.00;6337973;22;20026;-50
2021/10/20 00:32:09;;;;;;;0.20;0.10;;;;;;;16.62;100.00;98523.19;6337537;22;20073;-51
2021/10/20 00:35:12;;;;;;;2.30;0.30;;;;;;;16.59;100.00;98520.69;6339571;22;20030;-50
2021/10/20 00:38:15;;;;;;;5.35;0.82;;;;;;;16.59;100.00;98548.81;6339995;22;20076;-50
2021/10/20 00:41:19;;;;;;;3.00;0.32;;;;;;;16.57;100.00;98568.28;6339899;22;20339;-50
2021/10/20 00:44:21;;;;;;;4.85;0.22;;;;;;;16.47;100.00;98573.59;6339662;22;20075;-50
2021/10/20 00:47:26;;;;;;;3.78;0.55;;;;;;;16.47;100.00;98551.13;6339643;22;20025;-50
2021/10/20 00:50:29;;;;;;;0.45;0.25;;;;;;;16.37;100.00;98533.22;6339621;22;20089;-50
2021/10/20 00:53:31;;;;;;;7.13;0.10;;;;;;;16.41;100.00;98513.97;6339149;22;20025;-51
2021/10/20 00:56:35;;;;;;;8.00;0.75;;;;;;;16.41;100.00;98528.03;6339333;22;20026;-50
2021/10/20 00:59:39;;;;;;;0.68;0.20;;;;;;;16.45;100.00;98522.81;6339438;22;20488;-50
2021/10/20 01:02:43;;;;;;;10.90;0.90;;;;;;;16.42;100.00;98518.28;6339276;22;20359;-50
2021/10/20 01:05:45;;;;;;;0.15;0.15;;;;;;;16.39;100.00;98510.97;6339533;22;20348;-51
2021/10/20 01:08:48;;;;;;;2.42;0.10;;;;;;;16.37;100.00;98490.34;6339576;22;20029;-50
2021/10/20 01:11:53;;;;;;;0.80;0.30;;;;;;;16.32;100.00;98508.84;6339474;22;20026;-51
2021/10/20 01:14:56;;;;;;;4.47;0.25;;;;;;;16.25;100.00;98498.28;6339434;22;20021;-50
2021/10/20 01:18:02;;;;;;;1.67;0.80;;;;;;;16.29;100.00;98484.63;6339063;22;20087;-50
2021/10/20 01:21:05;;;;;;;3.72;0.85;;;;;;;16.33;100.00;98495.53;6339425;22;20083;-50
2021/10/20 01:24:08;;;;;;;2.00;0.38;;;;;;;16.39;100.00;98485.69;6339196;22;20142;-50
2021/10/20 01:27:11;;;;;;;1.23;0.38;;;;;;;16.46;100.00;98484.97;6339211;22;20044;-50
2021/10/20 01:30:14;;;;;;;1.20;0.32;;;;;;;16.59;100.00;98487.72;6339153;22;20095;-50
2021/10/20 01:33:17;;;;;;;6.40;0.73;;;;;;;16.63;100.00;98471.28;6339014;22;20026;-51
2021/10/20 01:36:19;;;;;;;1.27;0.10;;;;;;;16.66;100.00;98464.56;6339098;22;20396;-50
2021/10/20 01:39:22;;;;;;;6.72;0.32;;;;;;;16.55;100.00;98455.66;6339338;22;20038;-50
2021/10/20 01:42:27;;;;;;;0.50;0.47;;;;;;;16.51;100.00;98458.06;6339145;22;20044;-50
2021/10/20 01:45:30;;;;;;;16.08;1.20;;;;;;;16.53;100.00;98444.97;6338467;22;20025;-51
2021/10/20 01:48:33;;;;;;;0.68;0.20;;;;;;;16.50;100.00;98446.06;6339068;22;20502;-50
2021/10/20 01:51:36;;;;;;;1.40;0.10;;;;;;;16.45;100.00;98446.94;6338727;22;20092;-50
2021/10/20 01:54:39;;;;;;;0.35;0.30;;;;;;;16.36;100.00;98452.28;6338782;22;20482;-50
2021/10/20 01:57:43;;;;;;;2.90;0.40;;;;;;;16.31;100.00;98451.13;6338848;22;20025;-50
2021/10/20 02:00:46;;;;;;;6.10;0.30;;;;;;;16.31;100.00;98451.13;6338705;22;20462;-51
2021/10/20 02:03:49;;;;;;;2.17;0.60;;;;;;;16.28;100.00;98451.47;6338686;22;20018;-50
2021/10/20 02:06:52;;;;;;;8.90;1.17;;;;;;;16.22;100.00;98443.16;6338527;22;20022;-50
2021/10/20 02:09:55;;;;;;;1.45;0.25;;;;;;;16.24;100.00;98446.19;6338698;22;20037;-50
2021/10/20 02:12:57;;;;;;;1.20;0.20;;;;;;;16.30;100.00;98449.63;6319569;22;20076;-50
2021/10/20 02:16:03;;;;;;;2.70;0.38;;;;;;;16.39;100.00;98448.38;6338727;22;20022;-50
2021/10/20 02:19:06;;;;;;;1.23;0.65;;;;;;;16.45;100.00;98444.13;6319797;22;20037;-50
2021/10/20 02:22:09;;;;;;;2.85;0.32;;;;;;;16.45;100.00;98438.50;6338594;22;20388;-50
2021/10/20 02:25:12;;;;;;;2.63;0.38;;;;;;;16.54;100.00;98429.63;6338709;22;20029;-50
2021/10/20 02:28:15;;;;;;;0.55;0.30;;;;;;;16.53;100.00;98416.88;6338805;22;20026;-51
2021/10/20 02:31:18;;;;;;;1.95;0.50;;;;;;;16.51;100.00;98411.03;6338693;22;20026;-50
2021/10/20 02:34:22;;;;;;;7.97;0.57;;;;;;;16.44;100.00;98406.09;6338366;22;20029;-50
2021/10/20 02:37:25;;;;;;;0.55;0.50;;;;;;;16.36;100.00;98402.47;6338723;22;20080;-50
2021/10/20 02:40:29;;;;;;;1.60;0.80;;;;;;;16.30;100.00;98387.06;6338396;22;20026;-50
2021/10/20 02:43:35;;;;;;;1.65;0.85;;;;;;;16.21;100.00;98391.13;6338362;22;20022;-51
2021/10/20 02:46:38;;;;;;;9.93;0.95;;;;;;;16.23;100.00;98385.69;6338296;22;20025;-50
2021/10/20 02:49:41;;;;;;;0.13;0.10;;;;;;;16.20;100.00;98395.22;6338422;22;20057;-50
2021/10/20 02:52:44;;;;;;;7.07;0.77;;;;;;;16.15;100.00;98393.31;6338258;22;20041;-50
2021/10/20 02:55:47;;;;;;;1.75;1.25;;;;;;;16.09;100.00;98377.91;6338335;22;20041;-50
2021/10/20 02:58:50;;;;;;;11.38;0.32;;;;;;;16.06;100.00;98374.13;6338322;22;20025;-50
2021/10/20 03:01:53;;;;;;;0.30;0.20;;;;;;;16.02;100.00;98365.31;6338354;22;20036;-50
2021/10/20 03:04:55;;;;;;;9.95;0.65;;;;;;;15.69;100.00;98357.69;6338443;22;20097;-51
2021/10/20 03:07:58;;;;;;;7.13;0.63;;;;;;;15.65;100.00;98358.06;6338452;22;20026;-50
2021/10/20 03:11:01;;;;;;;1.05;0.40;;;;;;;15.59;100.00;98353.88;6338449;22;20063;-50
2021/10/20 03:14:04;;;;;;;3.75;0.75;;;;;;;15.60;100.00;98344.13;6338241;22;20079;-50
2021/10/20 03:17:07;;;;;;;0.85;0.28;;;;;;;15.45;100.00;98338.38;6338218;22;20450;-50
2021/10/20 03:20:10;;;;;;;7.30;0.45;;;;;;;15.37;100.00;98337.53;6338135;22;20099;-50
2021/10/20 03:23:13;;;;;;;3.53;0.60;;;;;;;15.32;100.00;98338.38;6338178;22;20030;-50
2021/10/20 03:26:16;;;;;;;1.65;0.35;;;;;;;15.27;100.00;98342.81;6338418;22;20338;-51
2021/10/20 03:29:20;;;;;;;1.58;0.30;;;;;;;15.28;100.00;98327.53;6338609;22;20098;-50
2021/10/20 03:32:22;;;;;;;0.20;0.20;;;;;;;15.25;100.00;98311.78;6337866;22;20107;-50
2021/10/20 03:35:25;;;;;;;5.43;0.17;;;;;;;15.10;100.00;98315.16;6338196;22;20079;-50
2021/10/20 03:38:28;;;;;;;6.50;0.38;;;;;;;15.02;100.00;98336.00;6338058;22;20501;-50
2021/10/20 03:41:31;;;;;;;0.98;0.50;;;;;;;14.91;100.00;98327.84;6337994;22;20493;-51
2021/10/20 03:44:33;;;;;;;1.85;0.20;;;;;;;14.93;100.00;98323.19;6337898;22;20017;-50
2021/10/20 03:47:36;;;;;;;0.55;0.15;;;;;;;14.92;100.00;98326.56;6337933;22;20074;-50
2021/10/20 03:50:41;;;;;;;3.20;0.90;;;;;;;14.89;100.00;98322.00;6337887;22;20530;-50
2021/10/20 03:53:44;;;;;;;4.03;1.10;;;;;;;14.83;100.00;98307.38;6337916;22;20068;-50
2021/10/20 03:56:47;;;;;;;0.10;0.10;;;;;;;14.81;100.00;98290.34;6338036;22;20040;-50
2021/10/20 03:59:49;;;;;;;0.10;0.00;;;;;;;14.75;100.00;98286.91;6338005;22;20469;-50
2021/10/20 04:02:52;;;;;;;0.20;0.20;;;;;;;14.80;100.00;98303.59;6337741;22;20022;-50
2021/10/20 04:05:55;;;;;;;0.85;0.55;;;;;;;14.77;100.00;98293.47;6338059;22;20369;-50
2021/10/20 04:08:58;;;;;;;2.42;0.15;;;;;;;14.74;100.00;98277.75;6337787;22;20530;-50
2021/10/20 04:12:01;;;;;;;0.10;0.10;;;;;;;14.73;100.00;98273.44;6337510;22;20466;-50
2021/10/20 04:15:04;;;;;;;2.70;1.13;;;;;;;14.70;100.00;98260.53;6337460;22;20026;-50
2021/10/20 04:18:07;;;;;;;0.40;0.40;;;;;;;14.68;100.00;98262.34;6337541;22;20029;-50
2021/10/20 04:21:10;;;;;;;0.10;0.10;;;;;;;14.60;100.00;98251.03;6337364;22;20454;-50
2021/10/20 04:24:12;;;;;;;0.17;0.15;;;;;;;14.57;100.00;98249.34;6336831;22;20462;-50
2021/10/20 04:27:15;;;;;;;1.13;0.47;;;;;;;14.54;100.00;98236.41;6337345;22;20053;-50
2021/10/20 04:30:20;;;;;;;0.50;0.43;;;;;;;14.52;100.00;98241.03;6337032;22;20037;-50
2021/10/20 04:33:23;;;;;;;1.75;0.30;;;;;;;14.52;100.00;98236.19;6337217;22;20459;-50
2021/10/20 04:36:26;;;;;;;0.80;0.17;;;;;;;14.53;100.00;98229.28;6337737;22;20430;-50
2021/10/20 04:39:29;;;;;;;0.52;0.40;;;;;;;14.54;100.00;98222.41;6337538;22;20079;-51
2021/10/20 04:42:32;;;;;;;4.95;2.25;;;;;;;14.51;100.00;98209.47;6337404;22;20025;-50
2021/10/20 04:45:35;;;;;;;0.75;0.57;;;;;;;14.47;100.00;98191.50;6337516;22;20026;-51
2021/10/20 04:48:38;;;;;;;16.95;0.73;;;;;;;14.41;100.00;98178.38;6337493;22;20022;-50
2021/10/20 04:51:41;;;;;;;1.70;0.98;;;;;;;14.42;100.00;98167.94;6337510;22;20389;-50
2021/10/20 04:54:44;;;;;;;3.40;0.43;;;;;;;14.27;100.00;98150.91;6337709;22;20386;-50
2021/10/20 04:57:51;;;;;;;0.20;0.00;;;;;;;13.66;100.00;98155.69;6337725;22;20359;-50
2021/10/20 05:00:54;;;;;;;1.40;0.60;;;;;;;13.97;100.00;98144.94;6318340;22;20029;-50
2021/10/20 05:03:57;;;;;;;4.40;0.20;;;;;;;13.92;100.00;98148.59;6337469;22;20022;-51
2021/10/20 05:07:00;;;;;;;0.10;0.10;;;;;;;14.18;100.00;98149.31;6337729;22;20021;-50
2021/10/20 05:10:03;;;;;;;0.80;0.55;;;;;;;14.08;100.00;98147.47;6337875;22;20026;-50
2021/10/20 05:13:06;;;;;;;0.85;0.73;;;;;;;14.06;100.00;98153.63;6337557;22;20053;-50
2021/10/20 05:16:09;;;;;;;0.20;0.20;;;;;;;13.92;100.00;98157.00;6337570;22;20025;-50
2021/10/20 05:19:12;;;;;;;0.40;0.20;;;;;;;14.03;100.00;98148.38;6337825;22;20021;-51
2021/10/20 05:22:15;;;;;;;0.28;0.28;;;;;;;14.09;100.00;98137.81;6339077;22;20030;-51
2021/10/20 05:25:19;;;;;;;0.70;0.32;;;;;;;14.05;100.00;98134.59;6339259;22;20026;-50
2021/10/20 05:28:21;;;;;;;1.75;0.10;;;;;;;13.97;100.00;98128.16;6339254;22;20025;-50
2021/10/20 05:31:24;;;;;;;0.10;0.10;;;;;;;13.94;100.00;98118.03;6339038;22;20048;-50
2021/10/20 05:34:27;;;;;;;2.92;0.40;;;;;;;13.87;100.00;98113.84;6338779;22;20106;-51
2021/10/20 05:37:31;;;;;;;0.63;0.22;;;;;;;13.89;100.00;98099.28;6338804;22;20025;-50
2021/10/20 05:40:34;;;;;;;15.40;1.08;;;;;;;13.75;100.00;98095.03;6338886;22;20101;-50
2021/10/20 05:43:36;;;;;;;2.13;0.50;;;;;;;13.68;100.00;98090.84;6338928;22;20053;-50
2021/10/20 05:46:40;;;;;;;0.63;0.50;;;;;;;13.75;100.00;98089.44;6338906;22;20021;-50
2021/10/20 05:49:43;;;;;;;4.43;0.38;;;;;;;13.85;100.00;98079.28;6338999;22;20025;-50
2021/10/20 05:52:45;;;;;;;0.10;0.10;;;;;;;13.79;100.00;98092.66;6338741;22;20390;-50
2021/10/20 05:55:49;;;;;;;13.77;0.80;;;;;;;13.68;100.00;98085.25;6338978;22;20500;-51
2021/10/20 05:58:51;;;;;;;0.10;0.10;;;;;;;13.70;100.00;98088.25;6338809;22;20485;-51
2021/10/20 06:01:54;;;;;;;1.20;0.47;;;;;;;13.60;100.00;98079.53;6338890;22;20044;-50
2021/10/20 06:04:57;;;;;;;0.10;0.00;;;;;;;13.53;100.00;98071.81;6339241;22;20339;-50
2021/10/20 06:08:00;;;;;;;0.88;0.50;;;;;;;13.58;100.00;98064.56;6338484;22;20049;-51
2021/10/20 06:11:03;;;;;;;1.40;0.65;;;;;;;13.60;100.00;98057.16;6338685;22;20463;-50
2021/10/20 06:14:06;;;;;;;0.17;0.17;;;;;;;13.60;100.00;98068.34;6338759;22;20022;-50
2021/10/20 06:17:09;;;;;;;0.55;0.20;;;;;;;13.60;100.00;98067.59;6338586;22;20045;-50
2021/10/20 06:20:12;;;;;;;1.88;0.63;;;;;;;13.54;100.00;98064.91;6319354;22;20038;-50
2021/10/20 06:23:15;;;;;;;1.25;0.20;;;;;;;13.52;100.00;98059.09;6338472;22;20041;-50
2021/10/20 06:26:18;;;;;;;1.65;0.47;;;;;;;13.51;100.00;98071.56;6338792;22;20085;-50
2021/10/20 06:29:23;;;;;;;1.65;0.95;;;;;;;13.55;100.00;98060.84;6319455;22;20022;-50
2021/10/20 06:32:25;;;;;;;0.10;0.00;;;;;;;13.51;100.00;98074.38;6338238;22;20041;-50
2021/10/20 06:35:28;;;;;;;0.57;0.25;;;;;;;13.50;100.00;98070.09;6338135;22;20025;-50
2021/10/20 06:38:32;;;;;;;0.38;0.20;;;;;;;13.50;100.00;98058.91;6338855;22;20026;-50
2021/10/20 06:41:35;;;;;;;2.65;0.85;;;;;;;13.52;100.00;98056.31;6338668;22;20025;-50
2021/10/20 06:44:38;;;;;;;0.32;0.10;;;;;;;13.54;100.00;98050.94;6338207;22;20025;-50
2021/10/20 06:47:41;;;;;;;0.88;0.30;;;;;;;13.57;100.00;98047.06;6338514;22;20084;-50
2021/10/20 06:50:44;;;;;;;0.52;0.52;;;;;;;13.62;100.00;98031.47;6338662;22;20095;-50
2021/10/20 06:53:47;;;;;;;2.78;0.75;;;;;;;13.65;100.00;98041.56;6338735;22;20513;-50
2021/10/20 06:56:51;;;;;;;3.78;0.50;;;;;;;13.70;100.00;98049.09;6338388;22;20041;-50
2021/10/20 06:59:54;;;;;;;2.28;0.38;;;;;;;13.78;100.00;98037.97;6337898;22;20029;-50
2021/10/20 07:02:57;;;;;;;8.40;0.50;;;;;;;13.82;100.00;98027.22;6337585;22;20087;-50
2021/10/20 07:06:00;;;;;;;14.98;0.82;;;;;;;13.84;100.00;98013.44;6338227;22;20037;-50
2021/10/20 07:09:04;;;;;;;0.10;0.10;;;;;;;13.85;100.00;98021.28;6338518;22;20076;-50
2021/10/20 07:12:08;;;;;;;2.53;0.40;;;;;;;13.84;100.00;98011.38;6338711;22;20076;-50
2021/10/20 07:15:11;;;;;;;5.88;0.85;;;;;;;13.91;100.00;98004.34;6338693;22;20065;-50
2021/10/20 07:18:14;;;;;;;1.23;0.73;;;;;;;13.93;100.00;98005.31;6339118;22;20375;-50
2021/10/20 07:21:18;;;;;;;2.85;0.45;;;;;;;14.01;100.00;98011.00;6339078;22;20079;-50
2021/10/20 07:24:21;;;;;;;0.68;0.68;;;;;;;14.09;100.00;98011.84;6338757;22;20041;-50
2021/10/20 07:27:25;;;;;;;9.40;0.95;;;;;;;14.16;100.00;97999.97;6337949;22;20098;-50
2021/10/20 07:30:28;;;;;;;0.47;0.10;;;;;;;14.22;100.00;97987.34;6337972;22;20378;-50
2021/10/20 07:33:31;;;;;;;5.97;1.40;;;;;;;14.27;100.00;97988.50;6338285;22;20072;-50
2021/10/20 07:36:33;;;;;;;2.97;0.85;;;;;;;14.33;100.00;97992.72;6337981;22;20041;-50
2021/10/20 07:39:36;;;;;;;2.20;1.00;;;;;;;14.59;100.00;97986.22;6337319;22;20116;-50
2021/10/20 07:42:40;;;;;;;0.25;0.25;;;;;;;14.64;100.00;97988.09;6338310;22;20476;-50
2021/10/20 07:45:43;;;;;;;0.80;0.30;;;;;;;14.76;100.00;97994.94;6338375;22;20058;-50
2021/10/20 07:48:46;;;;;;;4.03;1.65;;;;;;;14.80;100.00;97998.13;6338304;22;20117;-50
2021/10/20 07:51:51;;;;;;;0.88;0.22;;;;;;;14.90;100.00;98010.34;6338620;22;20041;-50
2021/10/20 07:54:55;;;;;;;3.80;0.55;;;;;;;15.00;100.00;98016.97;6338442;22;20061;-50
2021/10/20 07:57:58;;;;;;;6.47;1.85;;;;;;;15.15;100.00;98014.25;6318636;22;20030;-51
2021/10/20 08:01:02;;;;;;;0.90;0.55;;;;;;;15.31;100.00;98005.94;6338448;22;20079;-51
2021/10/20 08:04:05;;;;;;;1.95;0.65;;;;;;;15.42;100.00;98008.44;6338100;22;20033;-51
2021/10/20 08:07:08;;;;;;;2.03;0.90;;;;;;;15.56;100.00;98007.03;6338513;22;20084;-51
2021/10/20 08:10:16;;;;;;;3.63;0.43;;;;;;;15.59;100.00;98000.31;6338460;22;20407;-51
2021/10/20 08:13:19;;;;;;;1.27;0.40;;;;;;;15.51;100.00;97982.66;6337706;22;20026;-51
2021/10/20 08:16:22;;;;;;;4.68;0.47;;;;;;;15.45;100.00;97979.28;6337728;22;20049;-51
2021/10/20 08:19:26;;;;;;;1.55;0.60;;;;;;;15.35;100.00;97964.25;6337761;22;20110;-51
2021/10/20 08:22:28;;;;;;;4.30;1.00;;;;;;;15.27;100.00;97969.09;6337354;22;20044;-50
2021/10/20 08:25:34;;;;;;;3.20;0.65;;;;;;;15.30;100.00;97993.97;6337061;22;20030;-51
2021/10/20 08:28:37;;;;;;;0.68;0.10;;;;;;;15.26;100.00;97984.41;6337194;22;20503;-50
2021/10/20 08:31:40;;;;;;;2.92;1.65;;;;;;;15.30;100.00;97962.34;6337403;22;20057;-51
2021/10/20 08:34:43;;;;;;;0.63;0.63;;;;;;;15.22;100.00;97950.34;6337470;22;20041;-51
2021/10/20 08:37:54;;;;;;;1.77;0.22;;;;;;;15.28;100.00;97942.53;6337330;22;20052;-50
2021/10/20 08:40:58;;;;;;;;;;;;;;;15.25;100.00;97915.59;6320878;22;20097;-51
2021/10/20 08:44:02;;;;;;;1.75;0.17;;;;;;;15.19;100.00;97913.72;6337758;22;19933;-51
2021/10/20 08:47:08;;;;;;;2.13;0.55;;;;;;;15.14;100.00;97900.59;6337571;22;20026;-50
2021/10/20 08:50:17;;;;;;;13.75;0.77;;;;;;;15.16;100.00;97894.41;6337658;22;20025;-51
2021/10/20 08:53:21;;;;;;;3.45;0.57;;;;;;;15.20;100.00;97903.97;6337533;22;20025;-51
2021/10/20 08:56:25;;;;;;;1.00;0.52;;;;;;;15.35;100.00;97897.69;6339229;22;20462;-50
2021/10/20 08:59:28;;;;;;;0.70;0.40;;;;;;;15.38;100.00;97918.25;6339506;22;20029;-50
2021/10/20 09:02:36;;;;;;;1.33;0.57;;;;;;;15.45;100.00;97911.97;6338997;22;20072;-51
2021/10/20 09:05:39;;;;;;;0.65;0.30;;;;;;;15.53;100.00;97923.94;6339210;22;20045;-51
2021/10/20 09:08:44;;;;;;;5.45;0.50;;;;;;;15.65;100.00;97919.50;6339203;22;20049;-51
2021/10/20 09:11:47;;;;;;;7.57;0.38;;;;;;;15.73;100.00;97915.41;6339539;22;20025;-51
2021/10/20 09:14:49;;;;;;;2.20;0.43;;;;;;;15.72;100.00;97901.94;6339266;22;20033;-50
2021/10/20 09:18:03;;;;;;;2.80;0.20;;;;;;;15.66;100.00;97909.78;6339461;22;20025;-51
2021/10/20 09:21:07;;;;;;;2.20;0.35;;;;;;;15.75;100.00;97903.63;6339310;22;20048;-51
2021/10/20 09:24:10;;;;;;;2.85;0.20;;;;;;;15.72;100.00;97901.94;6339020;22;20103;-50
2021/10/20 09:27:26;;;;;;;3.13;0.73;;;;;;;15.71;100.00;97900.44;6339377;22;20021;-51
2021/10/20 09:30:30;;;;;;;0.25;0.17;;;;;;;15.74;100.00;97905.66;6338950;22;20048;-51
2021/10/20 09:33:36;;;;;;;1.10;0.10;;;;;;;16.04;100.00;97901.44;6338829;22;20343;-51
2021/10/20 09:36:39;;;;;;;0.10;0.10;;;;;;;16.37;100.00;97898.25;6338844;22;20026;-51
2021/10/20 09:39:43;;;;;;;0.20;0.20;;;;;;;16.32;100.00;97890.00;6338257;22;20098;-50
2021/10/20 09:42:49;;;;;;;5.05;0.40;;;;;;;16.25;100.00;97885.91;6338775;22;20057;-49
2021/10/20 09:45:52;;;;;;;0.22;0.13;;;;;;;16.23;100.00;97870.91;6338979;22;20466;-50
2021/10/20 10:04:07;;;;;;;4.03;0.22;;;;;;;16.31;100.00;97847.13;6291914;22;1379057;-60
2021/10/20 10:07:10;;;;;;;1.45;0.70;;;;;;;16.43;100.00;97834.19;6347609;22;20025;-59
2021/10/20 10:10:13;;;;;;;0.73;0.20;;;;;;;16.62;100.00;97826.13;6347319;22;20469;-60
2021/10/20 10:13:23;;;;;;;1.65;0.38;;;;;;;16.67;100.00;97816.00;6347154;22;20025;-59
2021/10/20 10:16:27;;;;;;;;;;;;;;;16.63;100.00;97802.31;6347456;22;20029;-59
2021/10/20 10:19:34;;;;;;;1.35;0.30;;;;;;;16.52;100.00;97802.00;6347207;22;19914;-59
2021/10/20 10:22:51;;;;;;;0.10;0.10;;;;;;;16.24;100.00;97805.75;6347400;22;20078;-59
2021/10/20 10:25:58;;;;;;;1.65;0.20;;;;;;;16.11;100.00;97800.34;6347312;22;20037;-59
2021/10/20 10:29:06;;;;;;;0.80;0.28;;;;;;;15.97;100.00;97807.47;6347092;22;20346;-59
2021/10/20 10:32:10;;;;;;;0.63;0.32;;;;;;;15.85;100.00;97814.78;6347130;22;20025;-59
2021/10/20 10:35:13;;;;;;;3.20;0.20;;;;;;;15.95;100.00;97807.28;6346991;22;20346;-59
2021/10/20 10:38:21;;;;;;;3.20;0.43;;;;;;;16.09;100.00;97810.66;6328255;22;20072;-59
2021/10/20 10:41:40;;;;;;;1.45;0.40;;;;;;;16.50;100.00;97794.09;6327637;22;20079;-58
2021/10/20 10:44:47;;;;;;;1.98;0.10;;;;;;;16.39;100.00;97794.50;6346970;22;20342;-59
2021/10/20 10:48:13;;;;;;;1.95;0.30;;;;;;;16.54;100.00;97790.94;6346162;22;20106;-60
2021/10/20 10:51:18;;;;;;;3.60;0.63;;;;;;;16.49;100.00;97797.47;6345799;22;20345;-58
2021/10/20 10:54:35;;;;;;;3.35;0.93;;;;;;;16.35;100.00;97802.53;6326474;22;20112;-60
2021/10/20 10:57:55;;;;;;;0.22;0.22;;;;;;;16.66;100.00;97795.56;6346123;22;20025;-58
2021/10/20 11:00:59;;;;;;;1.35;0.47;;;;;;;17.06;100.00;97792.03;6346433;22;20084;-59
2021/10/20 11:04:26;;;;;;;0.30;0.20;;;;;;;17.45;100.00;97789.16;6312603;22;20098;-58
2021/10/20 11:07:30;;;;;;;9.32;0.70;;;;;;;17.73;100.00;97779.63;6308538;22;20026;-58
2021/10/20 11:10:35;;;;;;;0.28;0.10;;;;;;;17.53;100.00;97777.16;6308504;22;20347;-59
2021/10/20 11:13:39;;;;;;;2.28;0.20;;;;;;;17.61;100.00;97766.56;6308301;22;20050;-59
2021/10/20 11:50:32;;;;;;;1.08;0.10;;;;;;;18.89;100.00;97680.72;6295116;22;1309655;-62
2021/10/20 11:53:35;;;;;;;4.18;0.40;;;;;;;18.79;100.00;97696.84;6347627;22;20083;-60
2021/10/20 11:56:38;;;;;;;2.88;0.70;;;;;;;18.75;100.00;97688.06;6347663;22;20026;-60
2021/10/20 11:59:41;;;;;;;0.25;0.10;;;;;;;18.65;100.00;97685.16;6328777;22;20047;-61
2021/10/20 12:02:45;;;;;;;0.82;0.10;;;;;;;18.77;100.00;97685.41;6347620;22;20053;-61
2021/10/20 12:05:48;;;;;;;3.95;0.30;;;;;;;18.70;100.00;97691.88;6347931;22;20026;-60
2021/10/20 12:08:52;;;;;;;1.13;0.20;;;;;;;18.42;100.00;97689.56;6346955;22;20063;-61
2021/10/20 12:12:20;;;;;;;0.65;0.00;;;;;;;17.93;100.00;97701.75;6346247;22;20025;-61
2021/10/20 12:15:41;;;;;;;0.70;0.20;;;;;;;17.63;100.00;97702.03;6328028;22;20028;-62
2021/10/20 12:18:48;;;;;;;0.10;0.10;;;;;;;17.35;100.00;97705.97;6328384;22;20021;-62
2021/10/20 12:21:53;;;;;;;9.05;0.30;;;;;;;17.07;100.00;97709.16;6328235;22;20083;-63
2021/10/20 12:25:00;;;;;;;0.32;0.22;;;;;;;16.62;100.00;97710.91;6347015;22;20465;-62
2021/10/20 12:28:10;;;;;;;5.00;0.20;;;;;;;15.97;100.00;97702.84;6347326;22;20018;-63
2021/10/20 12:31:19;;;;;;;2.13;0.28;;;;;;;15.94;100.00;97707.50;6347362;22;20022;-63
2021/10/20 12:34:48;;;;;;;0.63;0.15;;;;;;;16.09;100.00;97715.91;6328353;22;20026;-62
2021/10/20 12:37:54;;;;;;;1.95;0.20;;;;;;;16.09;100.00;97712.38;6347152;22;20107;-62
2021/10/20 12:41:10;;;;;;;0.10;0.00;;;;;;;16.06;100.00;97711.44;6327365;22;20026;-62
2021/10/20 12:44:18;;;;;;;0.10;0.10;;;;;;;16.02;100.00;97697.03;6346342;22;20381;-60
2021/10/20 12:47:28;;;;;;;1.60;0.57;;;;;;;16.37;100.00;97693.16;6346629;22;20022;-62
2021/10/20 12:50:34;;;;;;;3.10;0.30;;;;;;;16.20;100.00;97684.59;6341884;22;20061;-62
2021/10/20 12:53:47;;;;;;;1.58;0.43;;;;;;;16.18;100.00;97689.28;6320849;22;20450;-62
2021/10/20 12:56:55;;;;;;;1.15;0.38;;;;;;;16.32;100.00;97682.91;6320281;22;20347;-61
2021/10/20 13:00:14;;;;;;;0.30;0.10;;;;;;;16.40;100.00;97683.59;6339265;22;20026;-60
2021/10/20 13:03:17;;;;;;;1.38;0.50;;;;;;;16.51;100.00;97665.59;6338986;22;20022;-62
2021/10/20 13:06:22;;;;;;;2.67;0.47;;;;;;;16.53;100.00;97663.72;6339319;22;20064;-61
2021/10/20 13:09:28;;;;;;;0.35;0.20;;;;;;;16.46;100.00;97660.91;6303109;22;20454;-60
2021/10/20 13:12:31;;;;;;;1.08;0.65;;;;;;;16.49;100.00;97656.97;6339854;22;20343;-62
2021/10/20 13:15:35;;;;;;;2.92;0.95;;;;;;;16.61;100.00;97664.44;6339954;22;20457;-61
2021/10/20 13:18:38;;;;;;;5.30;0.52;;;;;;;16.75;100.00;97655.75;6339867;22;20025;-61
2021/10/20 13:21:41;;;;;;;1.15;0.93;;;;;;;16.71;100.00;97663.81;6339783;22;20026;-62
2021/10/20 13:24:45;;;;;;;0.90;0.20;;;;;;;16.75;100.00;97664.16;6339815;22;20021;-62
2021/10/20 13:27:48;;;;;;;0.90;0.10;;;;;;;16.79;100.00;97679.31;6339022;22;20025;-60
2021/10/20 13:30:51;;;;;;;0.10;0.10;;;;;;;16.84;100.00;97680.44;6339412;22;20027;-54
2021/10/20 13:33:54;;;;;;;0.47;0.30;;;;;;;16.94;100.00;97695.34;6339208;22;20449;-53
2021/10/20 13:36:58;;;;;;;0.10;0.10;;;;;;;16.90;100.00;97707.00;6339335;22;20447;-54
2021/10/20 13:40:02;;;;;;;0.70;0.22;;;;;;;16.63;100.00;97740.47;6338994;22;20022;-51
2021/10/20 13:43:06;;;;;;;0.38;0.10;;;;;;;16.23;100.00;97753.69;6337922;22;20025;-58
2021/10/20 13:46:09;;;;;;;1.50;0.35;;;;;;;15.75;100.00;97760.50;6339076;22;20458;-57
2021/10/20 13:49:12;;;;;;;0.35;0.10;;;;;;;15.19;100.00;97762.28;6339059;22;20025;-56
2021/10/20 13:52:16;;;;;;;0.50;0.10;;;;;;;14.90;100.00;97757.38;6339115;22;20029;-56
2021/10/20 13:55:20;;;;;;;0.20;0.17;;;;;;;14.78;100.00;97762.53;6339403;22;20025;-52
2021/10/20 13:58:24;;;;;;;0.32;0.15;;;;;;;14.70;100.00;97753.38;6319805;22;20022;-54
2021/10/20 14:01:28;;;;;;;2.22;0.25;;;;;;;14.55;100.00;97764.50;6319763;22;20025;-54
2021/10/20 14:04:31;;;;;;;0.20;0.20;;;;;;;14.36;100.00;97775.22;6338965;22;20098;-53
2021/10/20 14:07:34;;;;;;;0.17;0.10;;;;;;;14.14;100.00;97789.81;6339133;22;20038;-57
2021/10/20 14:10:38;;;;;;;0.32;0.25;;;;;;;14.05;100.00;97804.31;6319920;22;20068;-62
2021/10/20 14:13:42;;;;;;;0.10;0.10;;;;;;;13.94;100.00;97794.16;6320026;22;20075;-59
2021/10/20 14:16:47;;;;;;;0.10;0.10;;;;;;;14.05;100.00;97791.06;6338726;22;20099;-61
2021/10/20 14:19:50;;;;;;;0.40;0.10;;;;;;;14.00;100.00;97791.22;6338932;22;20026;-56
2021/10/20 14:23:00;;;;;;;0.10;0.00;;;;;;;13.76;100.00;97800.72;6319564;22;20025;-56
2021/10/20 14:26:07;;;;;;;0.22;0.22;;;;;;;13.71;100.00;97806.47;6318760;22;20024;-56
2021/10/20 14:29:10;;;;;;;0.17;0.17;;;;;;;13.54;100.00;97806.84;6337416;22;20441;-55
2021/10/20 14:32:19;;;;;;;1.95;0.35;;;;;;;13.45;100.00;97826.91;6337601;22;20029;-56
2021/10/20 14:35:24;;;;;;;0.23;0.20;;;;;;;13.63;100.00;97814.78;6319884;22;20025;-56
2021/10/20 14:38:28;;;;;;;0.10;0.10;;;;;;;13.88;100.00;97801.19;6339094;22;20339;-56
2021/10/20 14:41:36;;;;;;;2.33;0.40;;;;;;;13.95;100.00;97778.09;6319831;22;20504;-57
2021/10/20 14:44:39;;;;;;;0.40;0.40;;;;;;;13.80;100.00;97772.38;6300305;22;20492;-58
2021/10/20 14:47:43;;;;;;;3.50;0.45;;;;;;;13.55;100.00;97797.94;6339226;22;20026;-57
2021/10/20 14:50:54;;;;;;;0.10;0.10;;;;;;;13.26;100.00;97793.56;6338358;22;20021;-59
2021/10/20 14:53:58;;;;;;;11.18;1.25;;;;;;;13.18;100.00;97803.16;6318678;22;20022;-56
2021/10/20 14:57:04;;;;;;;0.32;0.32;;;;;;;13.30;100.00;97805.13;6338575;22;20026;-56
2021/10/20 15:00:08;;;;;;;4.32;0.90;;;;;;;13.13;100.00;97804.78;6302986;22;20442;-56
2021/10/20 15:03:13;;;;;;;0.20;0.20;;;;;;;13.11;100.00;97810.16;6338610;22;20025;-56
2021/10/20 15:06:17;;;;;;;3.50;0.32;;;;;;;13.03;100.00;97806.50;6319569;22;20466;-56